sensor_id;sensor_type;location;lat;lon;timestamp;P1;durP1;ratioP1;P2;durP2;ratioP2
76228;SDS011;65021;53.174;18.160;2023-04-01T00:00:51;21.80;;;11.50;;
76228;SDS011;65021;53.174;18.160;2023-04-01T00:03:18;17.40;;;8.70;;
76228;SDS011;65021;53.174;18.160;2023-04-01T00:05:46;25.60;;;13.90;;
76228;SDS011;65021;53.174;18.160;2023-04-01T00:08:12;27.30;;;14.80;;
76228;SDS011;65021;53.174;18.160;2023-04-01T00:10:38;19.00;;;10.10;;
76228;SDS011;65021;53.174;18.160;2023-04-01T00:13:04;22.00;;;12.60;;
76228;SDS011;65021;53.174;18.160;2023-04-01T00:15:30;28.00;;;15.10;;
76228;SDS011;65021;53.174;18.160;2023-04-01T00:17:56;32.10;;;15.90;;
76228;SDS011;65021;53.174;18.160;2023-04-01T00:20:22;25.70;;;12.90;;
76228;SDS011;65021;53.174;18.160;2023-04-01T00:22:48;27.50;;;14.60;;
76228;SDS011;65021;53.174;18.160;2023-04-01T00:25:14;25.90;;;13.20;;
76228;SDS011;65021;53.174;18.160;2023-04-01T00:27:40;24.20;;;13.90;;
76228;SDS011;65021;53.174;18.160;2023-04-01T00:30:07;23.40;;;12.80;;
76228;SDS011;65021;53.174;18.160;2023-04-01T00:32:33;26.80;;;14.90;;
76228;SDS011;65021;53.174;18.160;2023-04-01T00:35:00;25.00;;;13.90;;
76228;SDS011;65021;53.174;18.160;2023-04-01T00:37:26;26.50;;;13.30;;
76228;SDS011;65021;53.174;18.160;2023-04-01T00:39:53;25.60;;;14.30;;
76228;SDS011;65021;53.174;18.160;2023-04-01T00:42:19;25.80;;;13.10;;
76228;SDS011;65021;53.174;18.160;2023-04-01T00:44:47;24.60;;;13.00;;
76228;SDS011;65021;53.174;18.160;2023-04-01T00:47:15;18.90;;;10.00;;
76228;SDS011;65021;53.174;18.160;2023-04-01T00:49:43;26.70;;;14.70;;
76228;SDS011;65021;53.174;18.160;2023-04-01T00:52:13;20.00;;;10.40;;
76228;SDS011;65021;53.174;18.160;2023-04-01T00:54:43;21.60;;;11.60;;
76228;SDS011;65021;53.174;18.160;2023-04-01T00:57:14;24.80;;;13.50;;
76228;SDS011;65021;53.174;18.160;2023-04-01T00:59:45;19.80;;;11.30;;
76228;SDS011;65021;53.174;18.160;2023-04-01T01:04:43;26.60;;;15.20;;
76228;SDS011;65021;53.174;18.160;2023-04-01T01:10:10;28.90;;;15.40;;
76228;SDS011;65021;53.174;18.160;2023-04-01T01:12:43;29.40;;;14.80;;
76228;SDS011;65021;53.174;18.160;2023-04-01T01:23:49;20.20;;;8.90;;
76228;SDS011;65021;53.174;18.160;2023-04-01T01:31:48;24.40;;;13.70;;
76228;SDS011;65021;53.174;18.160;2023-04-01T01:37:08;19.70;;;10.80;;
76228;SDS011;65021;53.174;18.160;2023-04-01T01:39:39;20.90;;;11.60;;
76228;SDS011;65021;53.174;18.160;2023-04-01T01:42:09;21.80;;;11.40;;
76228;SDS011;65021;53.174;18.160;2023-04-01T01:44:39;21.00;;;11.90;;
76228;SDS011;65021;53.174;18.160;2023-04-01T01:47:07;22.20;;;10.90;;
76228;SDS011;65021;53.174;18.160;2023-04-01T01:49:34;20.00;;;10.10;;
76228;SDS011;65021;53.174;18.160;2023-04-01T01:52:02;10.10;;;4.90;;
76228;SDS011;65021;53.174;18.160;2023-04-01T01:54:29;19.50;;;10.30;;
76228;SDS011;65021;53.174;18.160;2023-04-01T01:57:03;17.80;;;8.40;;
76228;SDS011;65021;53.174;18.160;2023-04-01T01:59:33;11.80;;;5.90;;
76228;SDS011;65021;53.174;18.160;2023-04-01T02:02:03;12.90;;;6.90;;
76228;SDS011;65021;53.174;18.160;2023-04-01T02:04:39;16.80;;;8.50;;
76228;SDS011;65021;53.174;18.160;2023-04-01T02:07:10;21.00;;;11.60;;
76228;SDS011;65021;53.174;18.160;2023-04-01T02:09:41;19.90;;;11.70;;
76228;SDS011;65021;53.174;18.160;2023-04-01T02:12:09;9.90;;;4.70;;
76228;SDS011;65021;53.174;18.160;2023-04-01T02:14:50;19.30;;;10.30;;
76228;SDS011;65021;53.174;18.160;2023-04-01T02:17:21;20.00;;;11.10;;
76228;SDS011;65021;53.174;18.160;2023-04-01T02:20:04;18.70;;;10.40;;
76228;SDS011;65021;53.174;18.160;2023-04-01T02:22:35;17.70;;;10.10;;
76228;SDS011;65021;53.174;18.160;2023-04-01T02:25:08;18.80;;;10.80;;
76228;SDS011;65021;53.174;18.160;2023-04-01T02:27:38;21.70;;;11.40;;
76228;SDS011;65021;53.174;18.160;2023-04-01T02:30:04;20.50;;;10.90;;
76228;SDS011;65021;53.174;18.160;2023-04-01T02:32:31;14.80;;;8.30;;
76228;SDS011;65021;53.174;18.160;2023-04-01T02:34:59;18.40;;;8.40;;
76228;SDS011;65021;53.174;18.160;2023-04-01T02:39:54;18.80;;;9.70;;
76228;SDS011;65021;53.174;18.160;2023-04-01T02:42:25;18.40;;;8.20;;
76228;SDS011;65021;53.174;18.160;2023-04-01T02:44:51;20.80;;;11.20;;
76228;SDS011;65021;53.174;18.160;2023-04-01T02:47:17;19.50;;;10.10;;
76228;SDS011;65021;53.174;18.160;2023-04-01T02:49:43;16.90;;;7.60;;
76228;SDS011;65021;53.174;18.160;2023-04-01T02:52:09;20.50;;;10.30;;
76228;SDS011;65021;53.174;18.160;2023-04-01T02:54:35;21.80;;;10.70;;
76228;SDS011;65021;53.174;18.160;2023-04-01T02:57:01;23.80;;;10.50;;
76228;SDS011;65021;53.174;18.160;2023-04-01T02:59:27;20.50;;;10.70;;
76228;SDS011;65021;53.174;18.160;2023-04-01T03:01:53;22.60;;;11.50;;
76228;SDS011;65021;53.174;18.160;2023-04-01T03:04:19;18.50;;;9.50;;
76228;SDS011;65021;53.174;18.160;2023-04-01T03:06:45;20.50;;;9.90;;
76228;SDS011;65021;53.174;18.160;2023-04-01T03:09:11;21.70;;;10.90;;
76228;SDS011;65021;53.174;18.160;2023-04-01T03:11:37;24.50;;;11.00;;
76228;SDS011;65021;53.174;18.160;2023-04-01T03:14:03;19.60;;;9.50;;
76228;SDS011;65021;53.174;18.160;2023-04-01T03:16:28;25.10;;;11.00;;
76228;SDS011;65021;53.174;18.160;2023-04-01T03:18:54;27.20;;;12.10;;
76228;SDS011;65021;53.174;18.160;2023-04-01T03:21:24;17.00;;;7.90;;
76228;SDS011;65021;53.174;18.160;2023-04-01T03:23:50;21.20;;;9.80;;
76228;SDS011;65021;53.174;18.160;2023-04-01T03:26:16;16.80;;;6.90;;
76228;SDS011;65021;53.174;18.160;2023-04-01T03:28:42;12.80;;;4.80;;
76228;SDS011;65021;53.174;18.160;2023-04-01T03:31:09;15.40;;;7.50;;
76228;SDS011;65021;53.174;18.160;2023-04-01T03:33:35;9.10;;;3.60;;
76228;SDS011;65021;53.174;18.160;2023-04-01T03:36:01;13.30;;;5.60;;
76228;SDS011;65021;53.174;18.160;2023-04-01T03:38:32;15.50;;;6.70;;
76228;SDS011;65021;53.174;18.160;2023-04-01T03:41:01;18.70;;;8.10;;
76228;SDS011;65021;53.174;18.160;2023-04-01T03:43:27;12.50;;;5.50;;
76228;SDS011;65021;53.174;18.160;2023-04-01T03:45:53;18.00;;;6.90;;
76228;SDS011;65021;53.174;18.160;2023-04-01T03:48:20;13.40;;;6.30;;
76228;SDS011;65021;53.174;18.160;2023-04-01T03:50:46;8.40;;;3.70;;
76228;SDS011;65021;53.174;18.160;2023-04-01T03:53:12;15.50;;;7.40;;
76228;SDS011;65021;53.174;18.160;2023-04-01T03:55:38;15.50;;;5.90;;
76228;SDS011;65021;53.174;18.160;2023-04-01T03:58:06;18.80;;;8.00;;
76228;SDS011;65021;53.174;18.160;2023-04-01T04:00:32;14.70;;;5.80;;
76228;SDS011;65021;53.174;18.160;2023-04-01T04:02:59;15.00;;;5.90;;
76228;SDS011;65021;53.174;18.160;2023-04-01T04:05:25;22.00;;;8.70;;
76228;SDS011;65021;53.174;18.160;2023-04-01T04:07:52;24.90;;;10.60;;
76228;SDS011;65021;53.174;18.160;2023-04-01T04:10:18;25.40;;;11.20;;
76228;SDS011;65021;53.174;18.160;2023-04-01T04:12:45;22.90;;;10.00;;
76228;SDS011;65021;53.174;18.160;2023-04-01T04:15:11;25.10;;;10.60;;
76228;SDS011;65021;53.174;18.160;2023-04-01T04:17:37;16.70;;;6.70;;
76228;SDS011;65021;53.174;18.160;2023-04-01T04:20:04;23.00;;;9.30;;
76228;SDS011;65021;53.174;18.160;2023-04-01T04:22:30;26.80;;;10.60;;
76228;SDS011;65021;53.174;18.160;2023-04-01T04:24:56;32.30;;;13.60;;
76228;SDS011;65021;53.174;18.160;2023-04-01T04:27:22;31.80;;;13.10;;
76228;SDS011;65021;53.174;18.160;2023-04-01T04:29:47;33.30;;;11.90;;
76228;SDS011;65021;53.174;18.160;2023-04-01T04:32:13;38.20;;;16.50;;
76228;SDS011;65021;53.174;18.160;2023-04-01T04:34:39;32.00;;;13.80;;
76228;SDS011;65021;53.174;18.160;2023-04-01T04:37:05;37.00;;;15.30;;
76228;SDS011;65021;53.174;18.160;2023-04-01T04:39:31;32.90;;;12.80;;
76228;SDS011;65021;53.174;18.160;2023-04-01T04:41:57;31.60;;;12.90;;
76228;SDS011;65021;53.174;18.160;2023-04-01T04:44:23;44.90;;;15.80;;
76228;SDS011;65021;53.174;18.160;2023-04-01T04:46:48;28.10;;;10.70;;
76228;SDS011;65021;53.174;18.160;2023-04-01T04:49:14;42.50;;;16.60;;
76228;SDS011;65021;53.174;18.160;2023-04-01T04:51:40;31.90;;;11.20;;
76228;SDS011;65021;53.174;18.160;2023-04-01T04:54:07;27.60;;;10.20;;
76228;SDS011;65021;53.174;18.160;2023-04-01T04:56:34;33.60;;;13.40;;
76228;SDS011;65021;53.174;18.160;2023-04-01T04:59:01;26.30;;;9.20;;
76228;SDS011;65021;53.174;18.160;2023-04-01T05:01:27;25.70;;;9.60;;
76228;SDS011;65021;53.174;18.160;2023-04-01T05:03:53;33.10;;;12.40;;
76228;SDS011;65021;53.174;18.160;2023-04-01T05:06:19;21.80;;;8.70;;
76228;SDS011;65021;53.174;18.160;2023-04-01T05:08:45;22.10;;;9.60;;
76228;SDS011;65021;53.174;18.160;2023-04-01T05:11:12;24.00;;;8.80;;
76228;SDS011;65021;53.174;18.160;2023-04-01T05:13:41;29.20;;;10.60;;
76228;SDS011;65021;53.174;18.160;2023-04-01T05:16:08;24.90;;;11.20;;
76228;SDS011;65021;53.174;18.160;2023-04-01T05:18:35;28.40;;;13.00;;
76228;SDS011;65021;53.174;18.160;2023-04-01T05:21:01;23.90;;;10.60;;
76228;SDS011;65021;53.174;18.160;2023-04-01T05:23:27;16.90;;;7.10;;
76228;SDS011;65021;53.174;18.160;2023-04-01T05:25:53;26.80;;;10.90;;
76228;SDS011;65021;53.174;18.160;2023-04-01T05:28:19;31.00;;;11.90;;
76228;SDS011;65021;53.174;18.160;2023-04-01T05:30:45;9.90;;;4.90;;
76228;SDS011;65021;53.174;18.160;2023-04-01T05:33:11;20.90;;;9.40;;
76228;SDS011;65021;53.174;18.160;2023-04-01T05:35:38;23.60;;;12.00;;
76228;SDS011;65021;53.174;18.160;2023-04-01T05:38:05;22.90;;;10.70;;
76228;SDS011;65021;53.174;18.160;2023-04-01T05:40:31;24.10;;;11.20;;
76228;SDS011;65021;53.174;18.160;2023-04-01T05:42:58;19.80;;;9.40;;
76228;SDS011;65021;53.174;18.160;2023-04-01T05:45:24;25.30;;;11.10;;
76228;SDS011;65021;53.174;18.160;2023-04-01T05:47:50;28.50;;;13.20;;
76228;SDS011;65021;53.174;18.160;2023-04-01T05:50:16;18.90;;;8.30;;
76228;SDS011;65021;53.174;18.160;2023-04-01T05:52:42;19.20;;;7.30;;
76228;SDS011;65021;53.174;18.160;2023-04-01T05:55:10;16.30;;;7.80;;
76228;SDS011;65021;53.174;18.160;2023-04-01T05:57:36;22.40;;;11.40;;
76228;SDS011;65021;53.174;18.160;2023-04-01T06:00:02;24.70;;;11.80;;
76228;SDS011;65021;53.174;18.160;2023-04-01T06:02:29;19.90;;;9.90;;
76228;SDS011;65021;53.174;18.160;2023-04-01T06:05:02;28.00;;;12.90;;
76228;SDS011;65021;53.174;18.160;2023-04-01T06:07:38;21.30;;;10.30;;
76228;SDS011;65021;53.174;18.160;2023-04-01T06:10:09;22.60;;;12.10;;
76228;SDS011;65021;53.174;18.160;2023-04-01T06:25:47;17.70;;;8.40;;
76228;SDS011;65021;53.174;18.160;2023-04-01T06:47:56;18.30;;;8.10;;
76228;SDS011;65021;53.174;18.160;2023-04-01T06:50:35;19.40;;;9.50;;
76228;SDS011;65021;53.174;18.160;2023-04-01T06:53:30;12.30;;;6.60;;
76228;SDS011;65021;53.174;18.160;2023-04-01T06:56:05;11.60;;;5.50;;
76228;SDS011;65021;53.174;18.160;2023-04-01T06:58:42;10.30;;;5.50;;
76228;SDS011;65021;53.174;18.160;2023-04-01T07:01:48;19.40;;;9.50;;
76228;SDS011;65021;53.174;18.160;2023-04-01T07:04:37;21.40;;;10.50;;
76228;SDS011;65021;53.174;18.160;2023-04-01T07:10:13;18.10;;;8.70;;
76228;SDS011;65021;53.174;18.160;2023-04-01T07:12:45;24.10;;;10.20;;
76228;SDS011;65021;53.174;18.160;2023-04-01T07:18:28;14.60;;;7.00;;
76228;SDS011;65021;53.174;18.160;2023-04-01T07:20:58;15.40;;;6.90;;
76228;SDS011;65021;53.174;18.160;2023-04-01T07:23:32;14.40;;;7.50;;
76228;SDS011;65021;53.174;18.160;2023-04-01T07:26:06;17.50;;;8.10;;
76228;SDS011;65021;53.174;18.160;2023-04-01T07:28:42;15.00;;;8.80;;
76228;SDS011;65021;53.174;18.160;2023-04-01T07:33:42;14.70;;;7.90;;
76228;SDS011;65021;53.174;18.160;2023-04-01T07:50:13;14.80;;;7.70;;
76228;SDS011;65021;53.174;18.160;2023-04-01T07:52:54;16.70;;;9.00;;
76228;SDS011;65021;53.174;18.160;2023-04-01T08:06:32;16.40;;;8.90;;
76228;SDS011;65021;53.174;18.160;2023-04-01T08:19:47;14.90;;;7.80;;
76228;SDS011;65021;53.174;18.160;2023-04-01T08:22:41;10.80;;;4.80;;
76228;SDS011;65021;53.174;18.160;2023-04-01T08:25:13;12.40;;;6.50;;
76228;SDS011;65021;53.174;18.160;2023-04-01T08:27:51;12.10;;;6.80;;
76228;SDS011;65021;53.174;18.160;2023-04-01T08:30:43;10.60;;;5.60;;
76228;SDS011;65021;53.174;18.160;2023-04-01T08:38:55;11.50;;;5.30;;
76228;SDS011;65021;53.174;18.160;2023-04-01T08:52:57;8.10;;;4.20;;
76228;SDS011;65021;53.174;18.160;2023-04-01T08:58:52;8.10;;;4.60;;
76228;SDS011;65021;53.174;18.160;2023-04-01T09:07:17;8.10;;;4.40;;
76228;SDS011;65021;53.174;18.160;2023-04-01T09:12:23;9.50;;;5.60;;
76228;SDS011;65021;53.174;18.160;2023-04-01T09:26:18;6.80;;;3.50;;
76228;SDS011;65021;53.174;18.160;2023-04-01T09:43:39;6.70;;;3.10;;
76228;SDS011;65021;53.174;18.160;2023-04-01T09:51:55;7.30;;;3.90;;
76228;SDS011;65021;53.174;18.160;2023-04-01T10:17:25;7.40;;;3.70;;
76228;SDS011;65021;53.174;18.160;2023-04-01T10:38:55;6.30;;;2.90;;
76228;SDS011;65021;53.174;18.160;2023-04-01T10:56:39;5.70;;;2.60;;
76228;SDS011;65021;53.174;18.160;2023-04-01T11:07:52;6.40;;;2.90;;
76228;SDS011;65021;53.174;18.160;2023-04-01T11:21:38;5.40;;;2.70;;
76228;SDS011;65021;53.174;18.160;2023-04-01T11:37:40;4.80;;;2.00;;
76228;SDS011;65021;53.174;18.160;2023-04-01T11:43:01;4.10;;;2.00;;
76228;SDS011;65021;53.174;18.160;2023-04-01T11:56:31;4.20;;;1.80;;
76228;SDS011;65021;53.174;18.160;2023-04-01T11:59:30;3.40;;;1.40;;
76228;SDS011;65021;53.174;18.160;2023-04-01T12:05:25;3.50;;;1.30;;
76228;SDS011;65021;53.174;18.160;2023-04-01T12:08:21;3.60;;;1.70;;
76228;SDS011;65021;53.174;18.160;2023-04-01T12:16:36;5.60;;;1.80;;
76228;SDS011;65021;53.174;18.160;2023-04-01T12:21:38;4.30;;;1.50;;
76228;SDS011;65021;53.174;18.160;2023-04-01T12:48:40;2.90;;;1.30;;
76228;SDS011;65021;53.174;18.160;2023-04-01T12:51:23;3.80;;;1.40;;
76228;SDS011;65021;53.174;18.160;2023-04-01T12:56:47;3.80;;;1.70;;
76228;SDS011;65021;53.174;18.160;2023-04-01T13:02:34;3.90;;;1.60;;
76228;SDS011;65021;53.174;18.160;2023-04-01T13:05:37;3.60;;;1.80;;
76228;SDS011;65021;53.174;18.160;2023-04-01T13:10:58;3.80;;;1.60;;
76228;SDS011;65021;53.174;18.160;2023-04-01T13:24:17;3.30;;;1.40;;
76228;SDS011;65021;53.174;18.160;2023-04-01T13:27:09;3.30;;;1.50;;
76228;SDS011;65021;53.174;18.160;2023-04-01T13:29:49;4.30;;;1.70;;
76228;SDS011;65021;53.174;18.160;2023-04-01T13:53:44;5.00;;;2.10;;
76228;SDS011;65021;53.174;18.160;2023-04-01T13:56:41;5.90;;;1.80;;
76228;SDS011;65021;53.174;18.160;2023-04-01T14:07:14;4.20;;;1.60;;
76228;SDS011;65021;53.174;18.160;2023-04-01T14:10:07;5.60;;;2.00;;
76228;SDS011;65021;53.174;18.160;2023-04-01T14:29:21;3.60;;;1.80;;
76228;SDS011;65021;53.174;18.160;2023-04-01T14:38:09;4.10;;;2.10;;
76228;SDS011;65021;53.174;18.160;2023-04-01T14:52:14;3.40;;;1.60;;
76228;SDS011;65021;53.174;18.160;2023-04-01T14:54:48;5.80;;;2.20;;
76228;SDS011;65021;53.174;18.160;2023-04-01T14:57:26;5.70;;;2.00;;
76228;SDS011;65021;53.174;18.160;2023-04-01T15:16:11;5.00;;;2.20;;
76228;SDS011;65021;53.174;18.160;2023-04-01T15:19:05;4.50;;;2.00;;
76228;SDS011;65021;53.174;18.160;2023-04-01T15:32:45;6.20;;;2.10;;
76228;SDS011;65021;53.174;18.160;2023-04-01T15:40:49;6.00;;;2.20;;
76228;SDS011;65021;53.174;18.160;2023-04-01T15:57:36;5.00;;;2.40;;
76228;SDS011;65021;53.174;18.160;2023-04-01T16:14:33;5.70;;;2.10;;
76228;SDS011;65021;53.174;18.160;2023-04-01T16:17:05;7.10;;;2.50;;
76228;SDS011;65021;53.174;18.160;2023-04-01T16:25:29;5.60;;;2.50;;
76228;SDS011;65021;53.174;18.160;2023-04-01T16:31:15;5.80;;;2.50;;
76228;SDS011;65021;53.174;18.160;2023-04-01T16:39:43;7.00;;;2.20;;
76228;SDS011;65021;53.174;18.160;2023-04-01T16:42:18;3.30;;;1.50;;
76228;SDS011;65021;53.174;18.160;2023-04-01T16:47:38;4.90;;;2.00;;
76228;SDS011;65021;53.174;18.160;2023-04-01T16:50:23;6.30;;;2.70;;
76228;SDS011;65021;53.174;18.160;2023-04-01T16:58:23;5.10;;;2.40;;
76228;SDS011;65021;53.174;18.160;2023-04-01T17:00:53;5.50;;;3.30;;
76228;SDS011;65021;53.174;18.160;2023-04-01T17:03:27;4.90;;;2.30;;
76228;SDS011;65021;53.174;18.160;2023-04-01T17:11:18;6.80;;;3.10;;
76228;SDS011;65021;53.174;18.160;2023-04-01T17:13:52;4.90;;;2.60;;
76228;SDS011;65021;53.174;18.160;2023-04-01T17:19:04;5.60;;;3.00;;
76228;SDS011;65021;53.174;18.160;2023-04-01T17:27:04;7.30;;;3.00;;
76228;SDS011;65021;53.174;18.160;2023-04-01T17:29:41;4.80;;;2.70;;
76228;SDS011;65021;53.174;18.160;2023-04-01T17:32:09;3.80;;;2.20;;
76228;SDS011;65021;53.174;18.160;2023-04-01T17:51:54;4.20;;;2.40;;
76228;SDS011;65021;53.174;18.160;2023-04-01T17:55:03;5.40;;;3.20;;
76228;SDS011;65021;53.174;18.160;2023-04-01T18:07:53;8.20;;;4.30;;
76228;SDS011;65021;53.174;18.160;2023-04-01T18:24:16;4.70;;;2.70;;
76228;SDS011;65021;53.174;18.160;2023-04-01T18:27:07;8.60;;;4.50;;
76228;SDS011;65021;53.174;18.160;2023-04-01T18:29:51;5.40;;;2.30;;
76228;SDS011;65021;53.174;18.160;2023-04-01T18:51:57;8.70;;;5.20;;
76228;SDS011;65021;53.174;18.160;2023-04-01T18:54:40;6.10;;;3.00;;
76228;SDS011;65021;53.174;18.160;2023-04-01T18:57:15;5.50;;;2.90;;
76228;SDS011;65021;53.174;18.160;2023-04-01T18:59:43;9.00;;;5.50;;
76228;SDS011;65021;53.174;18.160;2023-04-01T19:02:20;9.00;;;5.50;;
76228;SDS011;65021;53.174;18.160;2023-04-01T19:07:34;9.60;;;5.40;;
76228;SDS011;65021;53.174;18.160;2023-04-01T19:15:30;9.80;;;5.30;;
76228;SDS011;65021;53.174;18.160;2023-04-01T19:20:46;10.00;;;6.70;;
76228;SDS011;65021;53.174;18.160;2023-04-01T19:26:17;6.80;;;3.00;;
76228;SDS011;65021;53.174;18.160;2023-04-01T19:29:15;7.50;;;4.10;;
76228;SDS011;65021;53.174;18.160;2023-04-01T19:43:15;12.40;;;7.20;;
76228;SDS011;65021;53.174;18.160;2023-04-01T19:45:51;5.20;;;3.30;;
76228;SDS011;65021;53.174;18.160;2023-04-01T19:51:16;12.10;;;5.50;;
76228;SDS011;65021;53.174;18.160;2023-04-01T19:53:57;6.60;;;3.60;;
76228;SDS011;65021;53.174;18.160;2023-04-01T19:56:31;13.00;;;7.60;;
76228;SDS011;65021;53.174;18.160;2023-04-01T19:59:16;15.30;;;7.40;;
76228;SDS011;65021;53.174;18.160;2023-04-01T20:01:45;10.10;;;5.10;;
76228;SDS011;65021;53.174;18.160;2023-04-01T20:07:34;12.00;;;6.20;;
76228;SDS011;65021;53.174;18.160;2023-04-01T20:10:10;13.50;;;6.80;;
76228;SDS011;65021;53.174;18.160;2023-04-01T20:17:50;8.50;;;3.80;;
76228;SDS011;65021;53.174;18.160;2023-04-01T20:20:23;8.80;;;5.10;;
76228;SDS011;65021;53.174;18.160;2023-04-01T20:22:55;9.40;;;5.50;;
76228;SDS011;65021;53.174;18.160;2023-04-01T20:25:52;10.10;;;6.30;;
76228;SDS011;65021;53.174;18.160;2023-04-01T20:28:28;13.60;;;6.00;;
76228;SDS011;65021;53.174;18.160;2023-04-01T20:42:43;11.60;;;5.60;;
76228;SDS011;65021;53.174;18.160;2023-04-01T20:53:35;11.20;;;5.60;;
76228;SDS011;65021;53.174;18.160;2023-04-01T20:56:23;8.90;;;4.00;;
76228;SDS011;65021;53.174;18.160;2023-04-01T21:02:03;9.70;;;4.00;;
76228;SDS011;65021;53.174;18.160;2023-04-01T21:05:19;11.40;;;5.60;;
76228;SDS011;65021;53.174;18.160;2023-04-01T21:07:47;14.50;;;5.70;;
76228;SDS011;65021;53.174;18.160;2023-04-01T21:13:10;11.80;;;5.60;;
76228;SDS011;65021;53.174;18.160;2023-04-01T21:32:51;9.90;;;4.60;;
76228;SDS011;65021;53.174;18.160;2023-04-01T21:46:34;10.90;;;5.40;;
76228;SDS011;65021;53.174;18.160;2023-04-01T21:49:47;6.70;;;3.40;;
76228;SDS011;65021;53.174;18.160;2023-04-01T22:00:25;14.70;;;5.50;;
76228;SDS011;65021;53.174;18.160;2023-04-01T22:03:10;12.10;;;5.40;;
76228;SDS011;65021;53.174;18.160;2023-04-01T22:05:45;11.10;;;5.10;;
76228;SDS011;65021;53.174;18.160;2023-04-01T22:11:23;8.90;;;4.80;;
76228;SDS011;65021;53.174;18.160;2023-04-01T22:16:36;12.00;;;6.20;;
76228;SDS011;65021;53.174;18.160;2023-04-01T22:19:24;8.40;;;3.40;;
76228;SDS011;65021;53.174;18.160;2023-04-01T22:24:50;11.20;;;6.10;;
76228;SDS011;65021;53.174;18.160;2023-04-01T22:32:43;8.10;;;4.50;;
76228;SDS011;65021;53.174;18.160;2023-04-01T22:40:59;8.20;;;4.10;;
76228;SDS011;65021;53.174;18.160;2023-04-01T22:43:36;7.60;;;4.10;;
76228;SDS011;65021;53.174;18.160;2023-04-01T22:48:50;8.10;;;4.20;;
76228;SDS011;65021;53.174;18.160;2023-04-01T22:51:24;9.10;;;4.60;;
76228;SDS011;65021;53.174;18.160;2023-04-01T22:54:15;10.60;;;4.40;;
76228;SDS011;65021;53.174;18.160;2023-04-01T22:57:04;7.30;;;3.50;;
76228;SDS011;65021;53.174;18.160;2023-04-01T23:00:17;8.20;;;3.00;;
76228;SDS011;65021;53.174;18.160;2023-04-01T23:02:36;8.00;;;3.80;;
76228;SDS011;65021;53.174;18.160;2023-04-01T23:05:05;9.90;;;4.40;;
76228;SDS011;65021;53.174;18.160;2023-04-01T23:10:32;7.30;;;3.70;;
76228;SDS011;65021;53.174;18.160;2023-04-01T23:13:03;5.60;;;2.20;;
76228;SDS011;65021;53.174;18.160;2023-04-01T23:15:31;8.10;;;3.20;;
76228;SDS011;65021;53.174;18.160;2023-04-01T23:18:03;9.80;;;4.40;;
76228;SDS011;65021;53.174;18.160;2023-04-01T23:26:10;5.20;;;2.80;;
76228;SDS011;65021;53.174;18.160;2023-04-01T23:28:55;4.60;;;1.80;;
76228;SDS011;65021;53.174;18.160;2023-04-01T23:39:11;7.60;;;4.10;;
76228;SDS011;65021;53.174;18.160;2023-04-01T23:41:48;7.10;;;4.20;;
76228;SDS011;65021;53.174;18.160;2023-04-01T23:44:17;7.00;;;3.20;;
76228;SDS011;65021;53.174;18.160;2023-04-01T23:46:45;5.70;;;3.10;;
76228;SDS011;65021;53.174;18.160;2023-04-01T23:49:34;10.00;;;4.20;;
76228;SDS011;65021;53.174;18.160;2023-04-01T23:52:44;6.50;;;2.90;;
76228;SDS011;65021;53.174;18.160;2023-04-01T23:54:53;8.30;;;4.20;;
76228;SDS011;65021;53.174;18.160;2023-04-01T23:57:33;8.20;;;4.10;;
